sensor_id;sensor_type;location;lat;lon;timestamp;P1;durP1;ratioP1;P2;durP2;ratioP2
8161;SDS011;16778;48.154;15.094;2023-04-06T00:00:56;3.57;;;2.00;;
8161;SDS011;16778;48.154;15.094;2023-04-06T00:03:22;5.50;;;1.97;;
8161;SDS011;16778;48.154;15.094;2023-04-06T00:05:48;2.73;;;1.80;;
8161;SDS011;16778;48.154;15.094;2023-04-06T00:08:14;4.63;;;2.20;;
8161;SDS011;16778;48.154;15.094;2023-04-06T00:10:40;5.13;;;2.37;;
8161;SDS011;16778;48.154;15.094;2023-04-06T00:13:06;6.53;;;2.17;;
8161;SDS011;16778;48.154;15.094;2023-04-06T00:15:32;6.28;;;2.20;;
8161;SDS011;16778;48.154;15.094;2023-04-06T00:17:58;3.70;;;1.60;;
8161;SDS011;16778;48.154;15.094;2023-04-06T00:20:24;4.03;;;1.93;;
8161;SDS011;16778;48.154;15.094;2023-04-06T00:22:50;4.82;;;2.47;;
8161;SDS011;16778;48.154;15.094;2023-04-06T00:25:16;6.40;;;2.10;;
8161;SDS011;16778;48.154;15.094;2023-04-06T00:27:42;3.23;;;1.90;;
8161;SDS011;16778;48.154;15.094;2023-04-06T00:30:08;7.03;;;1.83;;
8161;SDS011;16778;48.154;15.094;2023-04-06T00:32:34;3.90;;;2.00;;
8161;SDS011;16778;48.154;15.094;2023-04-06T00:35:04;4.90;;;2.17;;
8161;SDS011;16778;48.154;15.094;2023-04-06T00:37:30;5.75;;;2.63;;
8161;SDS011;16778;48.154;15.094;2023-04-06T00:39:56;5.63;;;2.30;;
8161;SDS011;16778;48.154;15.094;2023-04-06T00:42:22;3.47;;;1.70;;
8161;SDS011;16778;48.154;15.094;2023-04-06T00:44:54;3.25;;;1.83;;
8161;SDS011;16778;48.154;15.094;2023-04-06T00:47:21;4.75;;;2.10;;
8161;SDS011;16778;48.154;15.094;2023-04-06T00:49:47;4.95;;;1.92;;
8161;SDS011;16778;48.154;15.094;2023-04-06T00:52:13;2.72;;;1.98;;
8161;SDS011;16778;48.154;15.094;2023-04-06T00:54:40;5.53;;;2.28;;
8161;SDS011;16778;48.154;15.094;2023-04-06T00:57:06;3.50;;;1.90;;
8161;SDS011;16778;48.154;15.094;2023-04-06T00:59:31;2.93;;;2.00;;
8161;SDS011;16778;48.154;15.094;2023-04-06T01:01:57;5.70;;;2.33;;
8161;SDS011;16778;48.154;15.094;2023-04-06T01:04:23;4.13;;;2.10;;
8161;SDS011;16778;48.154;15.094;2023-04-06T01:06:49;3.60;;;1.90;;
8161;SDS011;16778;48.154;15.094;2023-04-06T01:09:16;3.85;;;2.45;;
8161;SDS011;16778;48.154;15.094;2023-04-06T01:11:42;3.92;;;2.20;;
8161;SDS011;16778;48.154;15.094;2023-04-06T01:14:07;5.27;;;2.37;;
8161;SDS011;16778;48.154;15.094;2023-04-06T01:16:33;3.07;;;2.53;;
8161;SDS011;16778;48.154;15.094;2023-04-06T01:18:59;4.47;;;2.33;;
8161;SDS011;16778;48.154;15.094;2023-04-06T01:21:25;4.73;;;2.27;;
8161;SDS011;16778;48.154;15.094;2023-04-06T01:23:51;8.33;;;3.10;;
8161;SDS011;16778;48.154;15.094;2023-04-06T01:26:17;3.83;;;2.20;;
8161;SDS011;16778;48.154;15.094;2023-04-06T01:28:42;3.23;;;2.10;;
8161;SDS011;16778;48.154;15.094;2023-04-06T01:31:09;4.13;;;2.33;;
8161;SDS011;16778;48.154;15.094;2023-04-06T01:33:35;4.32;;;2.35;;
8161;SDS011;16778;48.154;15.094;2023-04-06T01:36:01;5.50;;;2.40;;
8161;SDS011;16778;48.154;15.094;2023-04-06T01:38:28;4.15;;;2.30;;
8161;SDS011;16778;48.154;15.094;2023-04-06T01:40:54;4.00;;;2.37;;
8161;SDS011;16778;48.154;15.094;2023-04-06T01:43:20;6.18;;;2.38;;
8161;SDS011;16778;48.154;15.094;2023-04-06T01:45:45;3.20;;;2.23;;
8161;SDS011;16778;48.154;15.094;2023-04-06T01:48:11;5.93;;;1.90;;
8161;SDS011;16778;48.154;15.094;2023-04-06T01:50:37;5.03;;;2.30;;
8161;SDS011;16778;48.154;15.094;2023-04-06T01:53:03;5.50;;;2.47;;
8161;SDS011;16778;48.154;15.094;2023-04-06T01:55:28;5.40;;;2.50;;
8161;SDS011;16778;48.154;15.094;2023-04-06T01:57:54;5.33;;;2.53;;
8161;SDS011;16778;48.154;15.094;2023-04-06T02:00:20;5.07;;;3.27;;
8161;SDS011;16778;48.154;15.094;2023-04-06T02:02:46;4.50;;;2.77;;
8161;SDS011;16778;48.154;15.094;2023-04-06T02:05:11;4.00;;;2.27;;
8161;SDS011;16778;48.154;15.094;2023-04-06T02:07:37;5.30;;;2.27;;
8161;SDS011;16778;48.154;15.094;2023-04-06T02:10:03;5.27;;;2.70;;
8161;SDS011;16778;48.154;15.094;2023-04-06T02:12:29;6.35;;;2.75;;
8161;SDS011;16778;48.154;15.094;2023-04-06T02:14:55;4.70;;;2.37;;
8161;SDS011;16778;48.154;15.094;2023-04-06T02:17:20;3.87;;;2.20;;
8161;SDS011;16778;48.154;15.094;2023-04-06T02:19:46;5.67;;;2.50;;
8161;SDS011;16778;48.154;15.094;2023-04-06T02:22:12;3.47;;;2.70;;
8161;SDS011;16778;48.154;15.094;2023-04-06T02:24:37;3.53;;;2.17;;
8161;SDS011;16778;48.154;15.094;2023-04-06T02:27:03;3.80;;;2.57;;
8161;SDS011;16778;48.154;15.094;2023-04-06T02:29:30;7.90;;;3.30;;
8161;SDS011;16778;48.154;15.094;2023-04-06T02:31:55;6.47;;;2.70;;
8161;SDS011;16778;48.154;15.094;2023-04-06T02:34:21;5.73;;;2.80;;
8161;SDS011;16778;48.154;15.094;2023-04-06T02:36:47;6.13;;;2.80;;
8161;SDS011;16778;48.154;15.094;2023-04-06T02:39:12;4.77;;;2.60;;
8161;SDS011;16778;48.154;15.094;2023-04-06T02:41:39;6.88;;;2.50;;
8161;SDS011;16778;48.154;15.094;2023-04-06T02:44:06;4.45;;;2.75;;
8161;SDS011;16778;48.154;15.094;2023-04-06T02:46:33;5.70;;;3.03;;
8161;SDS011;16778;48.154;15.094;2023-04-06T02:48:59;6.40;;;3.10;;
8161;SDS011;16778;48.154;15.094;2023-04-06T02:51:25;4.33;;;2.60;;
8161;SDS011;16778;48.154;15.094;2023-04-06T02:53:51;7.07;;;3.20;;
8161;SDS011;16778;48.154;15.094;2023-04-06T02:56:17;4.78;;;3.00;;
8161;SDS011;16778;48.154;15.094;2023-04-06T02:58:44;7.53;;;2.92;;
8161;SDS011;16778;48.154;15.094;2023-04-06T03:01:09;5.73;;;2.67;;
8161;SDS011;16778;48.154;15.094;2023-04-06T03:03:35;5.17;;;2.57;;
8161;SDS011;16778;48.154;15.094;2023-04-06T03:06:01;9.93;;;3.30;;
8161;SDS011;16778;48.154;15.094;2023-04-06T03:08:28;4.72;;;2.92;;
8161;SDS011;16778;48.154;15.094;2023-04-06T03:10:53;6.07;;;3.17;;
8161;SDS011;16778;48.154;15.094;2023-04-06T03:13:20;5.05;;;2.55;;
8161;SDS011;16778;48.154;15.094;2023-04-06T03:15:46;5.65;;;3.05;;
8161;SDS011;16778;48.154;15.094;2023-04-06T03:18:11;6.47;;;3.03;;
8161;SDS011;16778;48.154;15.094;2023-04-06T03:20:37;3.67;;;2.47;;
8161;SDS011;16778;48.154;15.094;2023-04-06T03:23:03;5.30;;;3.27;;
8161;SDS011;16778;48.154;15.094;2023-04-06T03:25:29;5.20;;;2.90;;
8161;SDS011;16778;48.154;15.094;2023-04-06T03:27:58;4.38;;;2.65;;
8161;SDS011;16778;48.154;15.094;2023-04-06T03:30:24;4.55;;;2.70;;
8161;SDS011;16778;48.154;15.094;2023-04-06T03:32:50;6.80;;;3.20;;
8161;SDS011;16778;48.154;15.094;2023-04-06T03:35:16;5.40;;;3.00;;
8161;SDS011;16778;48.154;15.094;2023-04-06T03:37:42;8.50;;;3.20;;
8161;SDS011;16778;48.154;15.094;2023-04-06T03:40:08;4.77;;;2.70;;
8161;SDS011;16778;48.154;15.094;2023-04-06T03:42:34;8.32;;;3.10;;
8161;SDS011;16778;48.154;15.094;2023-04-06T03:45:00;6.23;;;2.90;;
8161;SDS011;16778;48.154;15.094;2023-04-06T03:47:25;7.93;;;2.87;;
8161;SDS011;16778;48.154;15.094;2023-04-06T03:49:51;6.37;;;2.97;;
8161;SDS011;16778;48.154;15.094;2023-04-06T03:52:17;5.23;;;2.87;;
8161;SDS011;16778;48.154;15.094;2023-04-06T03:54:43;4.67;;;2.70;;
8161;SDS011;16778;48.154;15.094;2023-04-06T03:57:08;4.93;;;2.93;;
8161;SDS011;16778;48.154;15.094;2023-04-06T03:59:34;10.23;;;3.60;;
8161;SDS011;16778;48.154;15.094;2023-04-06T04:02:00;4.73;;;3.03;;
8161;SDS011;16778;48.154;15.094;2023-04-06T04:04:25;4.73;;;2.73;;
8161;SDS011;16778;48.154;15.094;2023-04-06T04:06:51;7.27;;;3.47;;
8161;SDS011;16778;48.154;15.094;2023-04-06T04:09:17;4.53;;;3.03;;
8161;SDS011;16778;48.154;15.094;2023-04-06T04:11:42;7.67;;;2.67;;
8161;SDS011;16778;48.154;15.094;2023-04-06T04:14:08;17.50;;;2.97;;
8161;SDS011;16778;48.154;15.094;2023-04-06T04:16:34;5.40;;;2.50;;
8161;SDS011;16778;48.154;15.094;2023-04-06T04:19:00;3.67;;;2.43;;
8161;SDS011;16778;48.154;15.094;2023-04-06T04:21:25;4.90;;;3.03;;
8161;SDS011;16778;48.154;15.094;2023-04-06T04:23:54;6.38;;;3.08;;
8161;SDS011;16778;48.154;15.094;2023-04-06T04:26:19;5.67;;;3.50;;
8161;SDS011;16778;48.154;15.094;2023-04-06T04:28:45;5.68;;;2.90;;
8161;SDS011;16778;48.154;15.094;2023-04-06T04:31:11;5.50;;;2.77;;
8161;SDS011;16778;48.154;15.094;2023-04-06T04:33:37;6.30;;;2.97;;
8161;SDS011;16778;48.154;15.094;2023-04-06T04:36:02;9.00;;;2.97;;
8161;SDS011;16778;48.154;15.094;2023-04-06T04:38:28;4.97;;;2.67;;
8161;SDS011;16778;48.154;15.094;2023-04-06T04:40:54;5.07;;;3.07;;
8161;SDS011;16778;48.154;15.094;2023-04-06T04:43:20;9.07;;;2.90;;
8161;SDS011;16778;48.154;15.094;2023-04-06T04:45:45;5.47;;;2.87;;
8161;SDS011;16778;48.154;15.094;2023-04-06T04:48:11;6.23;;;2.87;;
8161;SDS011;16778;48.154;15.094;2023-04-06T04:50:37;4.00;;;2.60;;
8161;SDS011;16778;48.154;15.094;2023-04-06T04:53:02;9.63;;;3.23;;
8161;SDS011;16778;48.154;15.094;2023-04-06T04:55:30;12.80;;;3.20;;
8161;SDS011;16778;48.154;15.094;2023-04-06T04:57:56;6.37;;;3.03;;
8161;SDS011;16778;48.154;15.094;2023-04-06T05:00:23;8.80;;;3.50;;
8161;SDS011;16778;48.154;15.094;2023-04-06T05:02:49;6.35;;;3.40;;
8161;SDS011;16778;48.154;15.094;2023-04-06T05:05:15;6.57;;;3.00;;
8161;SDS011;16778;48.154;15.094;2023-04-06T05:07:40;4.77;;;2.90;;
8161;SDS011;16778;48.154;15.094;2023-04-06T05:10:06;9.07;;;3.27;;
8161;SDS011;16778;48.154;15.094;2023-04-06T05:12:32;7.15;;;3.42;;
8161;SDS011;16778;48.154;15.094;2023-04-06T05:14:58;7.00;;;3.13;;
8161;SDS011;16778;48.154;15.094;2023-04-06T05:17:23;3.97;;;2.60;;
8161;SDS011;16778;48.154;15.094;2023-04-06T05:19:49;12.10;;;3.00;;
8161;SDS011;16778;48.154;15.094;2023-04-06T05:22:15;4.70;;;3.70;;
8161;SDS011;16778;48.154;15.094;2023-04-06T05:24:42;6.50;;;3.25;;
8161;SDS011;16778;48.154;15.094;2023-04-06T05:27:08;7.32;;;3.33;;
8161;SDS011;16778;48.154;15.094;2023-04-06T05:29:34;13.18;;;4.10;;
8161;SDS011;16778;48.154;15.094;2023-04-06T05:32:00;6.90;;;3.67;;
8161;SDS011;16778;48.154;15.094;2023-04-06T05:34:26;8.65;;;4.18;;
8161;SDS011;16778;48.154;15.094;2023-04-06T05:36:52;7.87;;;4.20;;
8161;SDS011;16778;48.154;15.094;2023-04-06T05:39:18;7.67;;;4.03;;
8161;SDS011;16778;48.154;15.094;2023-04-06T05:41:43;8.17;;;4.40;;
8161;SDS011;16778;48.154;15.094;2023-04-06T05:44:09;7.30;;;3.70;;
8161;SDS011;16778;48.154;15.094;2023-04-06T05:46:35;7.80;;;3.97;;
8161;SDS011;16778;48.154;15.094;2023-04-06T05:49:00;6.13;;;4.37;;
8161;SDS011;16778;48.154;15.094;2023-04-06T05:51:26;6.90;;;3.57;;
8161;SDS011;16778;48.154;15.094;2023-04-06T05:53:52;5.23;;;3.07;;
8161;SDS011;16778;48.154;15.094;2023-04-06T05:56:18;4.77;;;3.33;;
8161;SDS011;16778;48.154;15.094;2023-04-06T05:58:43;7.33;;;3.20;;
8161;SDS011;16778;48.154;15.094;2023-04-06T06:01:09;5.07;;;3.53;;
8161;SDS011;16778;48.154;15.094;2023-04-06T06:03:35;6.90;;;3.60;;
8161;SDS011;16778;48.154;15.094;2023-04-06T06:06:01;8.23;;;3.53;;
8161;SDS011;16778;48.154;15.094;2023-04-06T06:08:28;10.93;;;3.63;;
8161;SDS011;16778;48.154;15.094;2023-04-06T06:10:54;5.97;;;3.30;;
8161;SDS011;16778;48.154;15.094;2023-04-06T06:13:20;6.20;;;3.30;;
8161;SDS011;16778;48.154;15.094;2023-04-06T06:15:46;8.38;;;3.40;;
8161;SDS011;16778;48.154;15.094;2023-04-06T06:18:12;5.77;;;2.83;;
8161;SDS011;16778;48.154;15.094;2023-04-06T06:20:38;5.97;;;3.77;;
8161;SDS011;16778;48.154;15.094;2023-04-06T06:23:03;8.67;;;3.17;;
8161;SDS011;16778;48.154;15.094;2023-04-06T06:25:29;6.97;;;3.10;;
8161;SDS011;16778;48.154;15.094;2023-04-06T06:27:58;9.32;;;3.13;;
8161;SDS011;16778;48.154;15.094;2023-04-06T06:30:24;3.80;;;2.37;;
8161;SDS011;16778;48.154;15.094;2023-04-06T06:32:50;15.63;;;3.63;;
8161;SDS011;16778;48.154;15.094;2023-04-06T06:35:16;11.30;;;3.33;;
8161;SDS011;16778;48.154;15.094;2023-04-06T06:37:42;5.83;;;3.07;;
8161;SDS011;16778;48.154;15.094;2023-04-06T06:40:08;11.00;;;3.33;;
8161;SDS011;16778;48.154;15.094;2023-04-06T06:42:35;5.43;;;2.90;;
8161;SDS011;16778;48.154;15.094;2023-04-06T06:45:01;6.50;;;3.30;;
8161;SDS011;16778;48.154;15.094;2023-04-06T06:47:26;8.20;;;3.80;;
8161;SDS011;16778;48.154;15.094;2023-04-06T06:49:52;5.43;;;3.10;;
8161;SDS011;16778;48.154;15.094;2023-04-06T06:52:18;5.17;;;3.00;;
8161;SDS011;16778;48.154;15.094;2023-04-06T06:54:44;5.73;;;2.97;;
8161;SDS011;16778;48.154;15.094;2023-04-06T06:57:09;4.90;;;3.03;;
8161;SDS011;16778;48.154;15.094;2023-04-06T06:59:35;4.80;;;2.70;;
8161;SDS011;16778;48.154;15.094;2023-04-06T07:02:01;1.73;;;1.40;;
8161;SDS011;16778;48.154;15.094;2023-04-06T07:04:26;3.63;;;2.50;;
8161;SDS011;16778;48.154;15.094;2023-04-06T07:06:52;3.17;;;2.27;;
8161;SDS011;16778;48.154;15.094;2023-04-06T07:09:18;4.77;;;2.80;;
8161;SDS011;16778;48.154;15.094;2023-04-06T07:11:44;4.93;;;3.17;;
8161;SDS011;16778;48.154;15.094;2023-04-06T07:14:10;4.10;;;1.97;;
8161;SDS011;16778;48.154;15.094;2023-04-06T07:16:36;8.03;;;2.47;;
8161;SDS011;16778;48.154;15.094;2023-04-06T07:19:02;4.43;;;2.37;;
8161;SDS011;16778;48.154;15.094;2023-04-06T07:21:28;5.53;;;2.27;;
8161;SDS011;16778;48.154;15.094;2023-04-06T07:23:53;5.57;;;2.63;;
8161;SDS011;16778;48.154;15.094;2023-04-06T07:26:19;3.00;;;2.30;;
8161;SDS011;16778;48.154;15.094;2023-04-06T07:28:45;5.23;;;2.43;;
8161;SDS011;16778;48.154;15.094;2023-04-06T07:31:11;1.30;;;1.20;;
8161;SDS011;16778;48.154;15.094;2023-04-06T07:33:36;4.30;;;2.47;;
8161;SDS011;16778;48.154;15.094;2023-04-06T07:36:02;3.97;;;2.37;;
8161;SDS011;16778;48.154;15.094;2023-04-06T07:38:28;6.60;;;2.83;;
8161;SDS011;16778;48.154;15.094;2023-04-06T07:40:54;5.70;;;3.07;;
8161;SDS011;16778;48.154;15.094;2023-04-06T07:43:20;3.17;;;1.73;;
8161;SDS011;16778;48.154;15.094;2023-04-06T07:45:46;3.27;;;2.27;;
8161;SDS011;16778;48.154;15.094;2023-04-06T07:48:11;5.80;;;2.03;;
8161;SDS011;16778;48.154;15.094;2023-04-06T07:50:37;6.83;;;2.93;;
8161;SDS011;16778;48.154;15.094;2023-04-06T07:53:03;3.63;;;1.93;;
8161;SDS011;16778;48.154;15.094;2023-04-06T07:55:29;7.40;;;2.60;;
8161;SDS011;16778;48.154;15.094;2023-04-06T07:57:55;4.73;;;2.90;;
8161;SDS011;16778;48.154;15.094;2023-04-06T08:00:21;4.83;;;2.47;;
8161;SDS011;16778;48.154;15.094;2023-04-06T08:02:47;8.43;;;2.00;;
8161;SDS011;16778;48.154;15.094;2023-04-06T08:05:12;3.63;;;2.60;;
8161;SDS011;16778;48.154;15.094;2023-04-06T08:07:38;3.77;;;2.07;;
8161;SDS011;16778;48.154;15.094;2023-04-06T08:10:04;8.60;;;2.53;;
8161;SDS011;16778;48.154;15.094;2023-04-06T08:12:30;4.80;;;2.30;;
8161;SDS011;16778;48.154;15.094;2023-04-06T08:14:56;4.90;;;2.33;;
8161;SDS011;16778;48.154;15.094;2023-04-06T08:17:22;3.37;;;2.37;;
8161;SDS011;16778;48.154;15.094;2023-04-06T08:19:47;6.33;;;2.50;;
8161;SDS011;16778;48.154;15.094;2023-04-06T08:22:14;4.93;;;2.70;;
8161;SDS011;16778;48.154;15.094;2023-04-06T08:24:40;1.63;;;1.00;;
8161;SDS011;16778;48.154;15.094;2023-04-06T08:27:05;10.17;;;2.50;;
8161;SDS011;16778;48.154;15.094;2023-04-06T08:29:31;3.77;;;2.00;;
8161;SDS011;16778;48.154;15.094;2023-04-06T08:31:57;6.27;;;2.10;;
8161;SDS011;16778;48.154;15.094;2023-04-06T08:34:22;3.10;;;2.43;;
8161;SDS011;16778;48.154;15.094;2023-04-06T08:36:49;4.03;;;2.60;;
8161;SDS011;16778;48.154;15.094;2023-04-06T08:39:15;5.20;;;2.67;;
8161;SDS011;16778;48.154;15.094;2023-04-06T08:41:43;2.30;;;1.97;;
8161;SDS011;16778;48.154;15.094;2023-04-06T08:44:09;2.83;;;1.87;;
8161;SDS011;16778;48.154;15.094;2023-04-06T08:46:36;7.63;;;2.23;;
8161;SDS011;16778;48.154;15.094;2023-04-06T08:49:02;1.40;;;1.30;;
8161;SDS011;16778;48.154;15.094;2023-04-06T08:51:31;4.50;;;2.20;;
8161;SDS011;16778;48.154;15.094;2023-04-06T08:53:57;5.87;;;2.43;;
8161;SDS011;16778;48.154;15.094;2023-04-06T08:56:24;5.27;;;2.43;;
8161;SDS011;16778;48.154;15.094;2023-04-06T08:58:55;4.63;;;2.60;;
8161;SDS011;16778;48.154;15.094;2023-04-06T09:01:22;3.90;;;2.23;;
8161;SDS011;16778;48.154;15.094;2023-04-06T09:03:49;1.67;;;1.33;;
8161;SDS011;16778;48.154;15.094;2023-04-06T09:06:15;3.53;;;2.30;;
8161;SDS011;16778;48.154;15.094;2023-04-06T09:08:41;3.50;;;1.70;;
8161;SDS011;16778;48.154;15.094;2023-04-06T09:11:08;6.23;;;2.40;;
8161;SDS011;16778;48.154;15.094;2023-04-06T09:13:47;5.47;;;2.40;;
8161;SDS011;16778;48.154;15.094;2023-04-06T09:16:16;2.60;;;1.87;;
8161;SDS011;16778;48.154;15.094;2023-04-06T09:18:42;4.03;;;2.17;;
8161;SDS011;16778;48.154;15.094;2023-04-06T09:21:08;3.30;;;2.60;;
8161;SDS011;16778;48.154;15.094;2023-04-06T09:23:34;1.40;;;1.30;;
8161;SDS011;16778;48.154;15.094;2023-04-06T09:26:18;2.67;;;1.90;;
8161;SDS011;16778;48.154;15.094;2023-04-06T09:28:48;3.30;;;1.40;;
8161;SDS011;16778;48.154;15.094;2023-04-06T09:31:35;5.33;;;2.67;;
8161;SDS011;16778;48.154;15.094;2023-04-06T09:34:00;4.37;;;1.93;;
8161;SDS011;16778;48.154;15.094;2023-04-06T09:36:33;3.20;;;1.97;;
8161;SDS011;16778;48.154;15.094;2023-04-06T09:39:01;2.63;;;1.60;;
8161;SDS011;16778;48.154;15.094;2023-04-06T09:41:29;3.10;;;1.53;;
8161;SDS011;16778;48.154;15.094;2023-04-06T09:44:05;1.20;;;1.10;;
8161;SDS011;16778;48.154;15.094;2023-04-06T09:46:34;2.37;;;1.57;;
8161;SDS011;16778;48.154;15.094;2023-04-06T09:49:01;2.97;;;1.90;;
8161;SDS011;16778;48.154;15.094;2023-04-06T09:51:30;2.77;;;1.77;;
8161;SDS011;16778;48.154;15.094;2023-04-06T09:53:57;3.37;;;1.83;;
8161;SDS011;16778;48.154;15.094;2023-04-06T09:56:28;2.73;;;1.90;;
8161;SDS011;16778;48.154;15.094;2023-04-06T09:59:01;4.37;;;2.10;;
8161;SDS011;16778;48.154;15.094;2023-04-06T10:01:31;1.27;;;1.17;;
8161;SDS011;16778;48.154;15.094;2023-04-06T10:06:38;2.60;;;1.93;;
8161;SDS011;16778;48.154;15.094;2023-04-06T10:09:04;2.37;;;1.30;;
8161;SDS011;16778;48.154;15.094;2023-04-06T10:11:33;1.23;;;1.10;;
8161;SDS011;16778;48.154;15.094;2023-04-06T10:13:59;2.43;;;1.93;;
8161;SDS011;16778;48.154;15.094;2023-04-06T10:16:26;3.53;;;1.53;;
8161;SDS011;16778;48.154;15.094;2023-04-06T10:18:54;4.40;;;1.70;;
8161;SDS011;16778;48.154;15.094;2023-04-06T10:21:24;1.00;;;0.93;;
8161;SDS011;16778;48.154;15.094;2023-04-06T10:24:01;4.03;;;2.10;;
8161;SDS011;16778;48.154;15.094;2023-04-06T10:26:27;2.03;;;1.63;;
8161;SDS011;16778;48.154;15.094;2023-04-06T10:28:54;3.40;;;1.70;;
8161;SDS011;16778;48.154;15.094;2023-04-06T10:31:26;4.27;;;2.37;;
8161;SDS011;16778;48.154;15.094;2023-04-06T10:33:54;1.57;;;1.30;;
8161;SDS011;16778;48.154;15.094;2023-04-06T10:36:25;3.87;;;1.67;;
8161;SDS011;16778;48.154;15.094;2023-04-06T10:38:58;1.83;;;1.47;;
8161;SDS011;16778;48.154;15.094;2023-04-06T10:41:24;3.43;;;1.90;;
8161;SDS011;16778;48.154;15.094;2023-04-06T10:44:00;2.97;;;2.00;;
8161;SDS011;16778;48.154;15.094;2023-04-06T10:46:27;2.13;;;1.80;;
8161;SDS011;16778;48.154;15.094;2023-04-06T10:48:55;2.07;;;1.60;;
8161;SDS011;16778;48.154;15.094;2023-04-06T10:51:23;2.63;;;1.70;;
8161;SDS011;16778;48.154;15.094;2023-04-06T10:53:52;1.60;;;1.27;;
8161;SDS011;16778;48.154;15.094;2023-04-06T10:56:21;3.47;;;1.30;;
8161;SDS011;16778;48.154;15.094;2023-04-06T10:58:48;1.77;;;1.53;;
8161;SDS011;16778;48.154;15.094;2023-04-06T11:01:16;2.23;;;1.57;;
8161;SDS011;16778;48.154;15.094;2023-04-06T11:03:46;5.23;;;2.23;;
8161;SDS011;16778;48.154;15.094;2023-04-06T11:06:19;3.73;;;2.23;;
8161;SDS011;16778;48.154;15.094;2023-04-06T11:08:50;3.50;;;2.17;;
8161;SDS011;16778;48.154;15.094;2023-04-06T11:11:17;2.70;;;1.77;;
8161;SDS011;16778;48.154;15.094;2023-04-06T11:19:02;1.77;;;1.53;;
8161;SDS011;16778;48.154;15.094;2023-04-06T11:21:32;3.03;;;1.73;;
8161;SDS011;16778;48.154;15.094;2023-04-06T11:24:15;2.97;;;2.07;;
8161;SDS011;16778;48.154;15.094;2023-04-06T11:26:59;2.77;;;2.13;;
8161;SDS011;16778;48.154;15.094;2023-04-06T11:29:29;2.97;;;1.33;;
8161;SDS011;16778;48.154;15.094;2023-04-06T11:31:59;2.07;;;1.43;;
8161;SDS011;16778;48.154;15.094;2023-04-06T11:34:28;4.50;;;2.50;;
8161;SDS011;16778;48.154;15.094;2023-04-06T11:36:56;2.87;;;1.60;;
8161;SDS011;16778;48.154;15.094;2023-04-06T11:39:23;3.30;;;2.23;;
8161;SDS011;16778;48.154;15.094;2023-04-06T11:41:51;2.87;;;2.13;;
8161;SDS011;16778;48.154;15.094;2023-04-06T11:47:14;4.33;;;2.57;;
8161;SDS011;16778;48.154;15.094;2023-04-06T11:49:41;4.47;;;2.20;;
8161;SDS011;16778;48.154;15.094;2023-04-06T11:52:17;2.87;;;1.57;;
8161;SDS011;16778;48.154;15.094;2023-04-06T11:54:45;1.67;;;1.23;;
8161;SDS011;16778;48.154;15.094;2023-04-06T11:57:12;6.00;;;3.17;;
8161;SDS011;16778;48.154;15.094;2023-04-06T11:59:37;4.10;;;2.40;;
8161;SDS011;16778;48.154;15.094;2023-04-06T12:02:03;8.23;;;2.50;;
8161;SDS011;16778;48.154;15.094;2023-04-06T12:04:29;3.23;;;2.33;;
8161;SDS011;16778;48.154;15.094;2023-04-06T12:06:56;4.77;;;2.60;;
8161;SDS011;16778;48.154;15.094;2023-04-06T12:09:21;3.83;;;1.83;;
8161;SDS011;16778;48.154;15.094;2023-04-06T12:11:47;3.37;;;2.27;;
8161;SDS011;16778;48.154;15.094;2023-04-06T12:14:13;6.37;;;1.90;;
8161;SDS011;16778;48.154;15.094;2023-04-06T12:16:39;2.40;;;1.77;;
8161;SDS011;16778;48.154;15.094;2023-04-06T12:19:05;4.20;;;1.87;;
8161;SDS011;16778;48.154;15.094;2023-04-06T12:21:31;7.13;;;2.53;;
8161;SDS011;16778;48.154;15.094;2023-04-06T12:23:58;2.77;;;1.97;;
8161;SDS011;16778;48.154;15.094;2023-04-06T12:26:24;4.77;;;2.80;;
8161;SDS011;16778;48.154;15.094;2023-04-06T12:28:51;2.83;;;2.43;;
8161;SDS011;16778;48.154;15.094;2023-04-06T12:31:17;2.40;;;1.60;;
8161;SDS011;16778;48.154;15.094;2023-04-06T12:33:47;4.23;;;2.23;;
8161;SDS011;16778;48.154;15.094;2023-04-06T12:36:16;5.10;;;2.60;;
8161;SDS011;16778;48.154;15.094;2023-04-06T12:38:48;5.30;;;2.73;;
8161;SDS011;16778;48.154;15.094;2023-04-06T12:41:15;4.93;;;3.17;;
8161;SDS011;16778;48.154;15.094;2023-04-06T12:43:41;3.63;;;1.93;;
8161;SDS011;16778;48.154;15.094;2023-04-06T12:46:07;3.57;;;2.40;;
8161;SDS011;16778;48.154;15.094;2023-04-06T12:48:33;4.53;;;2.60;;
8161;SDS011;16778;48.154;15.094;2023-04-06T12:51:01;5.17;;;3.33;;
8161;SDS011;16778;48.154;15.094;2023-04-06T12:53:27;3.00;;;2.50;;
8161;SDS011;16778;48.154;15.094;2023-04-06T12:55:53;8.33;;;3.63;;
8161;SDS011;16778;48.154;15.094;2023-04-06T12:58:20;7.27;;;3.00;;
8161;SDS011;16778;48.154;15.094;2023-04-06T13:00:49;3.40;;;2.20;;
8161;SDS011;16778;48.154;15.094;2023-04-06T13:03:19;3.50;;;2.27;;
8161;SDS011;16778;48.154;15.094;2023-04-06T13:05:51;3.37;;;1.53;;
8161;SDS011;16778;48.154;15.094;2023-04-06T13:08:17;4.07;;;2.60;;
8161;SDS011;16778;48.154;15.094;2023-04-06T13:10:47;1.87;;;1.67;;
8161;SDS011;16778;48.154;15.094;2023-04-06T13:13:14;5.57;;;2.80;;
8161;SDS011;16778;48.154;15.094;2023-04-06T13:15:40;3.97;;;1.97;;
8161;SDS011;16778;48.154;15.094;2023-04-06T13:18:06;1.80;;;1.70;;
8161;SDS011;16778;48.154;15.094;2023-04-06T13:20:32;3.40;;;2.23;;
8161;SDS011;16778;48.154;15.094;2023-04-06T13:22:58;3.83;;;2.63;;
8161;SDS011;16778;48.154;15.094;2023-04-06T13:25:24;6.50;;;3.40;;
8161;SDS011;16778;48.154;15.094;2023-04-06T13:27:49;6.47;;;3.43;;
8161;SDS011;16778;48.154;15.094;2023-04-06T13:30:15;2.93;;;2.20;;
8161;SDS011;16778;48.154;15.094;2023-04-06T13:32:41;3.67;;;2.33;;
8161;SDS011;16778;48.154;15.094;2023-04-06T13:35:07;2.30;;;1.73;;
8161;SDS011;16778;48.154;15.094;2023-04-06T13:37:34;3.60;;;2.00;;
8161;SDS011;16778;48.154;15.094;2023-04-06T13:40:01;4.77;;;3.37;;
8161;SDS011;16778;48.154;15.094;2023-04-06T13:42:27;6.13;;;2.87;;
8161;SDS011;16778;48.154;15.094;2023-04-06T13:44:53;4.87;;;2.67;;
8161;SDS011;16778;48.154;15.094;2023-04-06T13:47:19;5.33;;;2.40;;
8161;SDS011;16778;48.154;15.094;2023-04-06T13:49:46;2.83;;;1.73;;
8161;SDS011;16778;48.154;15.094;2023-04-06T13:52:12;3.00;;;1.80;;
8161;SDS011;16778;48.154;15.094;2023-04-06T13:54:38;5.93;;;3.03;;
8161;SDS011;16778;48.154;15.094;2023-04-06T13:57:03;3.50;;;1.90;;
8161;SDS011;16778;48.154;15.094;2023-04-06T13:59:33;3.73;;;2.23;;
8161;SDS011;16778;48.154;15.094;2023-04-06T14:02:00;4.03;;;2.33;;
8161;SDS011;16778;48.154;15.094;2023-04-06T14:04:30;3.93;;;2.47;;
8161;SDS011;16778;48.154;15.094;2023-04-06T14:06:56;4.27;;;2.73;;
8161;SDS011;16778;48.154;15.094;2023-04-06T14:09:22;3.87;;;1.80;;
8161;SDS011;16778;48.154;15.094;2023-04-06T14:11:48;5.10;;;2.83;;
8161;SDS011;16778;48.154;15.094;2023-04-06T14:14:15;4.00;;;2.17;;
8161;SDS011;16778;48.154;15.094;2023-04-06T14:16:41;2.90;;;1.80;;
8161;SDS011;16778;48.154;15.094;2023-04-06T14:19:11;2.07;;;1.83;;
8161;SDS011;16778;48.154;15.094;2023-04-06T14:21:39;3.57;;;2.83;;
8161;SDS011;16778;48.154;15.094;2023-04-06T14:24:08;3.43;;;1.70;;
8161;SDS011;16778;48.154;15.094;2023-04-06T14:26:37;3.73;;;2.60;;
8161;SDS011;16778;48.154;15.094;2023-04-06T14:29:03;3.93;;;2.10;;
8161;SDS011;16778;48.154;15.094;2023-04-06T14:31:30;4.63;;;2.10;;
8161;SDS011;16778;48.154;15.094;2023-04-06T14:33:56;4.47;;;2.63;;
8161;SDS011;16778;48.154;15.094;2023-04-06T14:36:22;1.70;;;1.40;;
8161;SDS011;16778;48.154;15.094;2023-04-06T14:38:48;4.10;;;2.20;;
8161;SDS011;16778;48.154;15.094;2023-04-06T14:41:15;4.37;;;2.60;;
8161;SDS011;16778;48.154;15.094;2023-04-06T14:43:42;4.83;;;2.40;;
8161;SDS011;16778;48.154;15.094;2023-04-06T14:46:07;2.50;;;1.60;;
8161;SDS011;16778;48.154;15.094;2023-04-06T14:48:33;1.67;;;1.47;;
8161;SDS011;16778;48.154;15.094;2023-04-06T14:51:00;4.87;;;2.20;;
8161;SDS011;16778;48.154;15.094;2023-04-06T14:53:25;4.63;;;2.30;;
8161;SDS011;16778;48.154;15.094;2023-04-06T14:55:52;3.13;;;2.27;;